createdAt,value
2018-12-17T00:00:31.225Z,51.77
2018-12-17T00:02:58.630Z,52.07
2018-12-17T00:05:26.034Z,55.43
2018-12-17T00:07:53.471Z,65.37
2018-12-17T00:10:20.874Z,51.40
2018-12-17T00:12:48.282Z,51.80
2018-12-17T00:15:15.767Z,48.97
2018-12-17T00:17:43.188Z,48.70
2018-12-17T00:20:10.798Z,49.77
2018-12-17T00:22:38.218Z,45.97
2018-12-17T00:25:05.935Z,51.77
2018-12-17T00:27:33.331Z,55.77
2018-12-17T00:30:00.730Z,51.27
2018-12-17T00:32:28.137Z,56.63
2018-12-17T00:34:55.526Z,60.00
2018-12-17T00:37:22.946Z,68.77
2018-12-17T00:39:50.338Z,62.67
2018-12-17T00:42:17.735Z,54.63
2018-12-17T00:44:45.129Z,67.30
2018-12-17T00:47:12.575Z,59.17
2018-12-17T00:49:40.026Z,60.40
2018-12-17T00:52:07.430Z,51.03
2018-12-17T00:54:34.823Z,51.73
2018-12-17T00:57:02.282Z,57.93
2018-12-17T00:59:29.759Z,61.50
2018-12-17T01:01:57.566Z,62.50
2018-12-17T01:04:24.972Z,58.00
2018-12-17T01:06:52.441Z,52.83
2018-12-17T01:09:19.834Z,53.60
2018-12-17T01:11:47.236Z,50.80
2018-12-17T01:14:14.702Z,54.27
2018-12-17T01:16:42.106Z,54.93
2018-12-17T01:19:09.498Z,48.60
2018-12-17T01:21:37.095Z,54.43
2018-12-17T01:24:04.494Z,57.73
2018-12-17T01:26:31.889Z,59.73
2018-12-17T01:28:59.293Z,51.03
2018-12-17T01:31:26.793Z,58.90
2018-12-17T01:33:54.262Z,47.97
2018-12-17T01:36:21.656Z,47.40
2018-12-17T01:38:49.053Z,47.67
2018-12-17T01:41:16.524Z,53.37
2018-12-17T01:43:43.984Z,43.90
2018-12-17T01:46:11.436Z,49.37
2018-12-17T01:48:38.895Z,45.43
2018-12-17T01:51:06.346Z,47.50
2018-12-17T01:53:33.803Z,47.37
2018-12-17T01:56:01.397Z,44.90
2018-12-17T01:58:29.355Z,53.90
2018-12-17T02:00:57.082Z,49.93
2018-12-17T02:03:24.655Z,51.70
2018-12-17T02:05:52.054Z,56.10
2018-12-17T02:08:19.462Z,50.63
2018-12-17T02:10:46.918Z,49.03
2018-12-17T02:13:14.380Z,62.50
2018-12-17T02:15:41.837Z,50.00
2018-12-17T02:18:09.290Z,49.57
2018-12-17T02:20:36.751Z,45.60
2018-12-17T02:23:04.169Z,51.20
2018-12-17T02:25:31.637Z,41.13
2018-12-17T02:27:59.320Z,48.13
2018-12-17T02:30:26.695Z,42.83
2018-12-17T02:32:54.176Z,46.77
2018-12-17T02:35:21.586Z,45.20
2018-12-17T02:37:48.982Z,45.77
2018-12-17T02:40:16.365Z,50.97
2018-12-17T02:42:43.763Z,51.97
2018-12-17T02:45:11.314Z,45.97
2018-12-17T02:47:38.710Z,55.00
2018-12-17T02:50:06.126Z,57.53
2018-12-17T02:52:33.582Z,52.77
2018-12-17T02:55:01.263Z,50.17
2018-12-17T02:57:28.806Z,51.17
2018-12-17T02:59:56.266Z,44.50
2018-12-17T03:02:23.653Z,47.53
2018-12-17T03:04:51.077Z,53.83
2018-12-17T03:07:18.531Z,58.23
2018-12-17T03:09:46.091Z,50.93
2018-12-17T03:12:13.550Z,49.43
2018-12-17T03:14:41.102Z,49.33
2018-12-17T03:17:08.558Z,57.17
2018-12-17T03:19:36.246Z,54.57
2018-12-17T03:22:03.779Z,52.60
2018-12-17T03:24:31.239Z,60.00
2018-12-17T03:26:58.642Z,56.07
2018-12-17T03:29:26.052Z,58.90
2018-12-17T03:31:53.451Z,50.47
2018-12-17T03:34:20.957Z,57.93
2018-12-17T03:36:48.415Z,56.13
2018-12-17T03:39:15.881Z,72.73
2018-12-17T03:41:43.334Z,69.43
2018-12-17T03:44:10.738Z,52.60
2018-12-17T03:46:38.123Z,70.50
2018-12-17T03:49:05.628Z,58.13
2018-12-17T03:51:33.163Z,55.03
2018-12-17T03:54:00.620Z,51.27
2018-12-17T03:56:28.013Z,61.10
2018-12-17T03:58:59.278Z,52.83
2018-12-17T04:01:24.839Z,52.93
2018-12-17T04:03:52.231Z,60.10
2018-12-17T04:06:19.656Z,51.50
2018-12-17T04:08:47.210Z,63.03
2018-12-17T04:11:14.658Z,62.67
2018-12-17T04:13:42.219Z,65.13
2018-12-17T04:16:09.675Z,58.83
2018-12-17T04:18:37.274Z,56.50
2018-12-17T04:21:04.690Z,60.50
2018-12-17T04:23:32.076Z,56.90
2018-12-17T04:25:59.461Z,62.53
2018-12-17T04:28:26.964Z,68.30
2018-12-17T04:30:54.523Z,71.40
2018-12-17T04:33:21.983Z,73.80
2018-12-17T04:35:49.386Z,59.20
2018-12-17T04:38:16.787Z,65.47
2018-12-17T04:40:44.179Z,69.07
2018-12-17T04:43:11.607Z,78.10
2018-12-17T04:45:39.153Z,74.27
2018-12-17T04:48:06.619Z,80.30
2018-12-17T04:50:34.012Z,79.40
2018-12-17T04:53:01.403Z,73.47
2018-12-17T04:55:28.798Z,76.57
2018-12-17T04:57:56.200Z,90.93
2018-12-17T05:00:23.695Z,90.70
2018-12-17T05:02:51.161Z,84.23
2018-12-17T05:05:18.606Z,83.87
2018-12-17T05:07:46.081Z,77.90
2018-12-17T05:10:13.514Z,98.87
2018-12-17T05:12:40.987Z,107.43
2018-12-17T05:15:08.453Z,80.53
2018-12-17T05:17:35.890Z,89.03
2018-12-17T05:20:03.487Z,80.63
2018-12-17T05:22:30.904Z,98.83
2018-12-17T05:24:58.303Z,83.67
2018-12-17T05:27:25.704Z,86.07
2018-12-17T05:29:53.110Z,109.83
2018-12-17T05:32:20.502Z,92.47
2018-12-17T05:34:47.900Z,76.27
2018-12-17T05:37:15.333Z,100.23
2018-12-17T05:39:42.799Z,96.37
2018-12-17T05:42:10.202Z,103.77
2018-12-17T05:44:37.711Z,142.87
2018-12-17T05:47:05.175Z,87.77
2018-12-17T05:49:32.642Z,119.37
2018-12-17T05:52:00.187Z,114.40
2018-12-17T05:54:27.576Z,104.97
2018-12-17T05:56:54.994Z,109.80
2018-12-17T05:59:28.381Z,104.67
2018-12-17T06:01:51.839Z,128.97
2018-12-17T06:04:19.318Z,113.37
2018-12-17T06:06:46.724Z,91.10
2018-12-17T06:09:14.403Z,117.57
2018-12-17T06:11:41.823Z,135.57
2018-12-17T06:14:09.243Z,116.60
2018-12-17T06:16:36.699Z,98.63
2018-12-17T06:19:04.167Z,148.03
2018-12-17T06:21:31.566Z,115.17
2018-12-17T06:23:58.954Z,116.07
2018-12-17T06:26:26.423Z,119.20
2018-12-17T06:28:53.875Z,112.67
2018-12-17T06:31:21.339Z,133.37
2018-12-17T06:33:48.734Z,103.90
2018-12-17T06:36:16.122Z,119.83
2018-12-17T06:38:43.601Z,110.33
2018-12-17T06:41:11.064Z,134.73
2018-12-17T06:43:38.514Z,113.70
2018-12-17T06:46:05.915Z,103.53
2018-12-17T06:48:33.334Z,107.50
2018-12-17T06:51:00.783Z,112.27
2018-12-17T06:53:28.243Z,129.20
2018-12-17T06:55:55.643Z,118.77
2018-12-17T06:58:23.451Z,120.63
2018-12-17T07:00:50.918Z,119.57
2018-12-17T07:03:18.383Z,117.37
2018-12-17T07:05:45.770Z,103.67
2018-12-17T07:08:15.078Z,112.97
2018-12-17T07:10:42.481Z,100.90
2018-12-17T07:13:09.879Z,122.83
2018-12-17T07:15:37.270Z,104.30
2018-12-17T07:18:04.760Z,108.27
2018-12-17T07:20:32.154Z,106.80
2018-12-17T07:22:59.593Z,117.60
2018-12-17T07:25:27.022Z,114.13
2018-12-17T07:27:54.492Z,99.27
2018-12-17T07:30:22.038Z,102.50
2018-12-17T07:32:49.439Z,99.63
2018-12-17T07:35:16.849Z,117.47
2018-12-17T07:37:44.311Z,102.63
2018-12-17T07:40:11.701Z,86.73
2018-12-17T07:42:39.118Z,114.63
2018-12-17T07:45:06.789Z,103.37
2018-12-17T07:47:34.234Z,91.13
2018-12-17T07:50:01.633Z,108.17
2018-12-17T07:52:29.046Z,113.50
2018-12-17T07:54:56.505Z,99.30
2018-12-17T07:57:23.966Z,94.53
2018-12-17T07:59:56.702Z,88.23
2018-12-17T08:02:20.827Z,100.23
2018-12-17T08:04:48.216Z,89.87
2018-12-17T08:07:15.607Z,86.17
2018-12-17T08:09:43.091Z,88.27
2018-12-17T08:12:10.649Z,99.97
2018-12-17T08:14:38.202Z,96.73
2018-12-17T08:17:05.606Z,73.77
2018-12-17T08:19:33.013Z,92.07
2018-12-17T08:22:00.470Z,81.57
2018-12-17T08:24:28.642Z,91.53
2018-12-17T08:26:56.206Z,67.23
2018-12-17T08:29:23.599Z,87.07
2018-12-17T08:31:51.023Z,66.50
2018-12-17T08:34:18.483Z,76.43
2018-12-17T08:36:45.930Z,69.97
2018-12-17T08:39:13.386Z,75.73
2018-12-17T08:41:40.851Z,77.40
2018-12-17T08:44:08.255Z,70.23
2018-12-17T08:46:35.638Z,78.63
2018-12-17T08:49:03.026Z,71.83
2018-12-17T08:51:30.470Z,78.10
2018-12-17T08:53:57.933Z,67.40
2018-12-17T08:56:25.387Z,67.43
2018-12-17T08:58:52.778Z,63.07
2018-12-17T09:01:20.170Z,64.13
2018-12-17T09:03:47.575Z,68.97
2018-12-17T09:06:15.514Z,70.07
2018-12-17T09:08:42.922Z,72.63
2018-12-17T09:11:10.305Z,63.40
2018-12-17T09:13:37.786Z,59.10
2018-12-17T09:16:05.243Z,54.10
2018-12-17T09:18:32.702Z,60.20
2018-12-17T09:21:00.094Z,59.80
2018-12-17T09:23:27.613Z,67.20
2018-12-17T09:25:55.071Z,57.33
2018-12-17T09:28:22.522Z,58.10
2018-12-17T09:30:49.982Z,57.43
2018-12-17T09:33:17.439Z,63.97
2018-12-17T09:35:44.842Z,61.40
2018-12-17T09:38:12.229Z,62.90
2018-12-17T09:40:39.711Z,61.20
2018-12-17T09:43:07.215Z,52.03
2018-12-17T09:45:34.611Z,57.03
2018-12-17T09:48:02.084Z,57.80
2018-12-17T09:50:29.638Z,57.17
2018-12-17T09:52:57.096Z,54.50
2018-12-17T09:55:24.683Z,54.63
2018-12-17T09:57:52.111Z,57.43
2018-12-17T10:00:25.398Z,60.10
2018-12-17T10:02:48.951Z,57.70
2018-12-17T10:05:16.439Z,49.07
2018-12-17T10:07:43.971Z,47.27
2018-12-17T10:10:11.561Z,54.73
2018-12-17T10:12:39.106Z,50.23
2018-12-17T10:15:06.811Z,50.20
2018-12-17T10:17:34.198Z,49.23
2018-12-17T10:20:01.678Z,63.10
2018-12-17T10:22:29.134Z,64.60
2018-12-17T10:24:56.602Z,48.63
2018-12-17T10:27:24.070Z,37.00
2018-12-17T10:29:51.469Z,42.10
2018-12-17T10:32:18.963Z,43.13
2018-12-17T10:34:46.355Z,43.73
2018-12-17T10:37:13.774Z,45.73
2018-12-17T10:39:41.190Z,44.97
2018-12-17T10:42:08.584Z,44.23
2018-12-17T10:44:36.064Z,47.00
2018-12-17T10:47:03.546Z,46.67
2018-12-17T10:49:31.058Z,47.70
2018-12-17T10:51:58.525Z,41.93
2018-12-17T10:54:25.997Z,42.77
2018-12-17T10:56:53.436Z,37.00
2018-12-17T10:59:20.887Z,44.70
2018-12-17T11:01:53.738Z,39.87
2018-12-17T11:04:23.033Z,38.60
2018-12-17T11:06:50.462Z,34.97
2018-12-17T11:09:17.910Z,37.00
2018-12-17T11:11:45.438Z,35.80
2018-12-17T11:14:12.904Z,45.90
2018-12-17T11:16:40.453Z,41.00
2018-12-17T11:19:07.925Z,35.30
2018-12-17T11:21:35.370Z,42.70
2018-12-17T11:24:02.832Z,38.10
2018-12-17T11:26:30.310Z,33.00
2018-12-17T11:28:57.700Z,33.87
2018-12-17T11:31:25.206Z,38.10
2018-12-17T11:33:52.599Z,39.40
2018-12-17T11:36:20.010Z,35.13
2018-12-17T11:38:47.399Z,34.07
2018-12-17T11:41:14.807Z,35.30
2018-12-17T11:43:43.966Z,34.63
2018-12-17T11:46:11.655Z,33.37
2018-12-17T11:48:39.482Z,32.80
2018-12-17T11:51:06.938Z,32.83
2018-12-17T11:53:34.330Z,32.13
2018-12-17T11:56:01.721Z,33.57
2018-12-17T11:58:29.175Z,34.20
2018-12-17T12:00:57.674Z,33.40
2018-12-17T12:03:25.075Z,29.23
2018-12-17T12:05:52.535Z,33.23
2018-12-17T12:08:19.937Z,29.77
2018-12-17T12:10:47.329Z,30.73
2018-12-17T12:13:14.737Z,34.57
2018-12-17T12:15:42.287Z,29.97
2018-12-17T12:18:09.695Z,29.53
2018-12-17T12:20:37.082Z,33.27
2018-12-17T12:23:04.486Z,32.40
2018-12-17T12:25:31.964Z,30.17
2018-12-17T12:27:59.403Z,33.53
2018-12-17T12:30:26.843Z,29.23
2018-12-17T12:32:54.248Z,25.90
2018-12-17T12:35:21.646Z,29.20
2018-12-17T12:37:49.094Z,23.50
2018-12-17T12:40:16.483Z,30.00
2018-12-17T12:42:43.886Z,32.63
2018-12-17T12:45:11.372Z,33.47
2018-12-17T12:47:38.781Z,32.70
2018-12-17T12:50:08.098Z,32.20
2018-12-17T12:52:35.598Z,36.17
2018-12-17T12:55:03.115Z,28.53
2018-12-17T12:57:30.674Z,27.90
2018-12-17T12:59:58.071Z,29.33
2018-12-17T13:02:25.471Z,22.50
2018-12-17T13:04:52.983Z,25.13
2018-12-17T13:07:20.379Z,37.47
2018-12-17T13:09:47.786Z,32.90
2018-12-17T13:12:15.198Z,25.70
2018-12-17T13:14:42.597Z,29.30
2018-12-17T13:17:15.708Z,21.70
2018-12-17T13:19:43.167Z,26.90
2018-12-17T13:22:10.546Z,21.97
2018-12-17T13:24:37.945Z,22.90
2018-12-17T13:27:05.367Z,22.60
2018-12-17T13:29:32.766Z,22.57
2018-12-17T13:32:00.220Z,21.83
2018-12-17T13:34:27.636Z,25.60
2018-12-17T13:36:55.035Z,24.40
2018-12-17T13:39:22.451Z,23.17
2018-12-17T13:41:49.831Z,22.83
2018-12-17T13:44:17.294Z,21.70
2018-12-17T13:46:44.750Z,20.90
2018-12-17T13:49:12.160Z,19.33
2018-12-17T13:51:41.458Z,16.30
2018-12-17T13:54:08.930Z,20.70
2018-12-17T13:56:36.314Z,22.00
2018-12-17T13:59:03.779Z,21.57
2018-12-17T14:01:31.230Z,20.97
2018-12-17T14:03:58.790Z,20.10
2018-12-17T14:06:26.251Z,17.13
2018-12-17T14:08:53.810Z,22.10
2018-12-17T14:11:21.271Z,17.40
2018-12-17T14:13:48.657Z,18.50
2018-12-17T14:16:16.083Z,18.83
2018-12-17T14:18:49.080Z,23.67
2018-12-17T14:21:21.998Z,17.80
2018-12-17T14:23:49.403Z,14.83
2018-12-17T14:26:16.864Z,17.80
2018-12-17T14:28:44.314Z,13.60
2018-12-17T14:31:11.779Z,16.50
2018-12-17T14:33:39.173Z,22.57
2018-12-17T14:36:08.556Z,22.23
2018-12-17T14:38:36.357Z,19.30
2018-12-17T14:41:03.755Z,17.17
2018-12-17T14:43:31.142Z,17.53
2018-12-17T14:45:58.568Z,12.47
2018-12-17T14:48:25.953Z,16.00
2018-12-17T14:50:53.359Z,16.63
2018-12-17T14:53:20.838Z,15.70
2018-12-17T14:55:48.252Z,14.83
2018-12-17T14:58:15.646Z,20.43
2018-12-17T15:00:43.103Z,15.47
2018-12-17T15:03:10.563Z,16.53
2018-12-17T15:05:37.971Z,18.30
2018-12-17T15:08:05.486Z,19.60
2018-12-17T15:10:32.931Z,16.40
2018-12-17T15:13:00.394Z,14.40
2018-12-17T15:15:27.838Z,13.37
2018-12-17T15:17:55.299Z,14.93
2018-12-17T15:20:22.760Z,13.27
2018-12-17T15:22:50.151Z,15.43
2018-12-17T15:25:17.560Z,14.00
2018-12-17T15:27:45.126Z,18.53
2018-12-17T15:30:12.529Z,14.30
2018-12-17T15:32:39.910Z,15.30
2018-12-17T15:35:07.398Z,15.50
2018-12-17T15:37:34.850Z,16.00
2018-12-17T15:40:02.244Z,18.07
2018-12-17T15:42:29.675Z,14.70
2018-12-17T15:44:57.129Z,18.90
2018-12-17T15:47:24.588Z,14.50
2018-12-17T15:49:51.990Z,16.03
2018-12-17T15:52:19.396Z,18.90
2018-12-17T15:54:46.853Z,14.97
2018-12-17T15:57:14.257Z,14.77
2018-12-17T15:59:41.771Z,12.73
2018-12-17T16:02:09.434Z,12.00
2018-12-17T16:04:36.822Z,18.20
2018-12-17T16:07:04.247Z,18.00
2018-12-17T16:09:31.690Z,16.87
2018-12-17T16:11:59.085Z,15.93
2018-12-17T16:14:26.541Z,21.20
2018-12-17T16:16:53.959Z,15.87
2018-12-17T16:19:21.342Z,18.60
2018-12-17T16:21:48.770Z,16.43
2018-12-17T16:24:16.159Z,14.00
2018-12-17T16:26:43.631Z,19.27
2018-12-17T16:29:11.022Z,16.97
2018-12-17T16:31:38.414Z,15.00
2018-12-17T16:34:05.846Z,18.87
2018-12-17T16:36:33.353Z,21.13
2018-12-17T16:39:00.746Z,18.83
2018-12-17T16:41:28.218Z,19.77
2018-12-17T16:43:55.607Z,19.07
2018-12-17T16:46:23.030Z,22.43
2018-12-17T16:48:50.496Z,18.90
2018-12-17T16:51:17.945Z,17.40
2018-12-17T16:53:45.347Z,26.77
2018-12-17T16:56:12.751Z,20.90
2018-12-17T16:58:40.146Z,22.37
2018-12-17T17:01:07.538Z,17.90
2018-12-17T17:03:35.026Z,22.27
2018-12-17T17:06:02.426Z,24.27
2018-12-17T17:08:29.845Z,21.33
2018-12-17T17:10:57.298Z,23.57
2018-12-17T17:13:24.698Z,22.90
2018-12-17T17:15:52.102Z,20.93
2018-12-17T17:18:19.502Z,29.73
2018-12-17T17:20:46.934Z,77.17
2018-12-17T17:23:14.494Z,19.77
2018-12-17T17:25:41.886Z,18.80
2018-12-17T17:28:09.285Z,20.77
2018-12-17T17:30:36.679Z,25.80
2018-12-17T17:33:04.081Z,28.83
2018-12-17T17:35:31.557Z,25.90
2018-12-17T17:37:59.010Z,26.93
2018-12-17T17:40:26.586Z,31.83
2018-12-17T17:42:54.106Z,27.67
2018-12-17T17:45:21.595Z,27.00
2018-12-17T17:47:49.146Z,48.90
2018-12-17T17:50:16.606Z,49.30
2018-12-17T17:52:43.998Z,23.00
2018-12-17T17:55:11.385Z,24.60
2018-12-17T17:57:38.776Z,25.50
2018-12-17T18:00:08.779Z,23.37
2018-12-17T18:02:36.170Z,24.07
2018-12-17T18:05:04.323Z,25.90
2018-12-17T18:07:31.700Z,25.87
2018-12-17T18:09:59.138Z,23.37
2018-12-17T18:12:26.825Z,23.23
2018-12-17T18:14:54.247Z,25.93
2018-12-17T18:17:21.702Z,24.73
2018-12-17T18:19:49.170Z,22.27
2018-12-17T18:22:16.582Z,25.83
2018-12-17T18:24:43.976Z,23.53
2018-12-17T18:27:11.438Z,25.53
2018-12-17T18:29:38.909Z,23.90
2018-12-17T18:32:06.298Z,24.70
2018-12-17T18:34:33.697Z,40.37
2018-12-17T18:37:01.167Z,34.20
2018-12-17T18:39:28.570Z,50.17
2018-12-17T18:41:56.082Z,34.23
2018-12-17T18:44:23.533Z,32.63
2018-12-17T18:46:51.008Z,41.87
2018-12-17T18:49:18.541Z,30.60
2018-12-17T18:51:45.937Z,33.50
2018-12-17T18:54:13.329Z,33.07
2018-12-17T18:56:40.819Z,31.90
2018-12-17T18:59:08.199Z,34.80
2018-12-17T19:01:35.602Z,32.27
2018-12-17T19:04:03.013Z,25.97
2018-12-17T19:06:30.430Z,32.50
2018-12-17T19:08:57.886Z,36.77
2018-12-17T19:11:25.281Z,35.30
2018-12-17T19:13:52.698Z,33.73
2018-12-17T19:16:20.100Z,50.63
2018-12-17T19:18:47.491Z,36.23
2018-12-17T19:21:14.890Z,41.37
2018-12-17T19:23:42.335Z,38.00
2018-12-17T19:26:09.829Z,48.27
2018-12-17T19:28:37.294Z,45.23
2018-12-17T19:31:04.700Z,41.58
2018-12-17T19:33:32.082Z,39.97
2018-12-17T19:35:59.483Z,43.07
2018-12-17T19:38:26.961Z,33.30
2018-12-17T19:40:54.438Z,38.13
2018-12-17T19:43:21.832Z,40.60
2018-12-17T19:45:49.335Z,49.63
2018-12-17T19:48:16.797Z,47.40
2018-12-17T19:50:44.202Z,42.40
2018-12-17T19:53:11.579Z,47.87
2018-12-17T19:55:39.064Z,56.83
2018-12-17T19:58:06.455Z,55.27
2018-12-17T20:00:33.854Z,48.03
2018-12-17T20:03:01.452Z,49.60
2018-12-17T20:05:28.847Z,57.97
2018-12-17T20:07:56.262Z,51.10
2018-12-17T20:10:25.573Z,56.57
2018-12-17T20:12:52.974Z,62.37
2018-12-17T20:15:20.396Z,50.63
2018-12-17T20:17:47.805Z,56.10
2018-12-17T20:20:15.214Z,55.90
2018-12-17T20:22:42.690Z,49.87
2018-12-17T20:25:10.136Z,50.60
2018-12-17T20:27:37.527Z,48.97
2018-12-17T20:30:06.840Z,64.70
2018-12-17T20:32:34.574Z,59.90
2018-12-17T20:35:02.098Z,62.30
2018-12-17T20:37:29.514Z,50.97
2018-12-17T20:39:56.978Z,54.07
2018-12-17T20:42:24.479Z,59.37
2018-12-17T20:44:51.882Z,64.80
2018-12-17T20:47:19.346Z,64.70
2018-12-17T20:49:46.815Z,57.07
2018-12-17T20:52:14.334Z,58.23
2018-12-17T20:54:41.722Z,56.93
2018-12-17T20:57:09.121Z,60.77
2018-12-17T20:59:36.512Z,58.50
2018-12-17T21:02:04.008Z,54.87
2018-12-17T21:04:31.548Z,61.20
2018-12-17T21:06:58.966Z,60.80
2018-12-17T21:09:26.451Z,61.30
2018-12-17T21:11:53.938Z,65.83
2018-12-17T21:14:23.792Z,59.83
2018-12-17T21:16:50.974Z,61.33
2018-12-17T21:19:18.435Z,58.63
2018-12-17T21:21:45.827Z,63.73
2018-12-17T21:24:13.338Z,62.00
2018-12-17T21:26:40.738Z,51.97
2018-12-17T21:29:08.155Z,57.87
2018-12-17T21:31:35.590Z,61.70
2018-12-17T21:34:02.986Z,53.37
2018-12-17T21:36:30.435Z,63.50
2018-12-17T21:38:57.826Z,61.73
2018-12-17T21:41:25.224Z,57.13
2018-12-17T21:43:52.694Z,63.03
2018-12-17T21:46:20.252Z,57.20
2018-12-17T21:48:47.642Z,57.47
2018-12-17T21:51:15.038Z,59.73
2018-12-17T21:53:42.431Z,58.37
2018-12-17T21:56:09.896Z,57.47
2018-12-17T21:58:37.286Z,62.67
2018-12-17T22:01:04.702Z,51.40
2018-12-17T22:03:32.142Z,58.43
2018-12-17T22:05:59.602Z,56.93
2018-12-17T22:08:26.989Z,54.50
2018-12-17T22:10:54.509Z,53.47
2018-12-17T22:13:21.975Z,52.83
2018-12-17T22:15:49.366Z,54.70
2018-12-17T22:18:16.782Z,54.07
2018-12-17T22:20:44.198Z,62.27
2018-12-17T22:23:11.602Z,53.10
2018-12-17T22:25:38.982Z,59.80
2018-12-17T22:28:06.400Z,57.27
2018-12-17T22:30:33.798Z,59.83
2018-12-17T22:33:01.223Z,56.40
2018-12-17T22:35:28.614Z,64.30
2018-12-17T22:37:56.031Z,56.13
2018-12-17T22:40:23.452Z,54.80
2018-12-17T22:42:50.948Z,70.53
2018-12-17T22:45:18.326Z,59.93
2018-12-17T22:47:45.727Z,59.43
2018-12-17T22:50:13.211Z,60.23
2018-12-17T22:52:40.781Z,65.30
2018-12-17T22:55:08.354Z,54.47
2018-12-17T22:57:35.750Z,57.03
2018-12-17T23:00:04.838Z,50.77
2018-12-17T23:02:32.226Z,53.37
2018-12-17T23:05:00.615Z,64.47
2018-12-17T23:07:28.014Z,59.87
2018-12-17T23:10:07.509Z,62.30
2018-12-17T23:12:46.846Z,54.23
2018-12-17T23:15:26.073Z,62.73
2018-12-17T23:17:53.023Z,59.40
2018-12-17T23:20:20.623Z,59.30
2018-12-17T23:22:48.351Z,74.33
2018-12-17T23:25:15.802Z,59.30
2018-12-17T23:27:47.250Z,73.40
2018-12-17T23:30:14.951Z,65.83
2018-12-17T23:32:42.334Z,66.80
2018-12-17T23:35:09.834Z,56.33
2018-12-17T23:37:37.244Z,59.07
2018-12-17T23:40:05.237Z,58.63
2018-12-17T23:42:32.712Z,63.67
2018-12-17T23:45:00.119Z,55.50
2018-12-17T23:47:27.543Z,55.77
2018-12-17T23:49:54.938Z,65.00
2018-12-17T23:52:22.324Z,56.50
2018-12-17T23:54:49.800Z,67.77
2018-12-17T23:57:17.183Z,64.07
2018-12-17T23:59:44.598Z,50.00
